Terminal Aerodrome Forecast
Issued by NWS

Home | Current Version | Previous Version | Text Only | Print | Product List | Glossary On
Versions: 1 2 3 4 5 6 7 8 9 10 11 12 13 14 15
000
FTUS42 KMHX 312300 RRA
TAFISO
TAF
KISO 312345Z 0100/0124 10004KT P6SM SCT040 BKN100
     FM011200 06007KT P6SM VCSH SCT025 BKN040
     FM011700 08008KT P6SM VCTS SCT025 BKN040CB
      AMD LTD TO CLD VIS AND WIND=

USA.gov is the U.S. government's official web portal to all federal, state and local government web resources and services.